Time;durP1;ratioP1;P1;durP2;ratioP2;P2;SDS_P1;SDS_P2;PMS_P1;PMS_P2;Temp;Humidity;BMP_temperature;BMP_pressure;BME280_temperature;BME280_humidity;BME280_pressure;Samples;Min_cycle;Max_cycle;Signal;HPM_P1;HPM_P2
2021/04/19 00:02:00;;;;;;;56.43;27.27;;;;;;;;;;5054364;28;39414;-79
2021/04/19 00:04:26;;;;;;;61.37;28.77;;;;;;;;;;5053204;28;38234;-80
2021/04/19 00:06:52;;;;;;;56.57;26.47;;;;;;;;;;5054319;28;37151;-79
2021/04/19 00:09:19;;;;;;;61.30;28.07;;;;;;;;;;5049404;28;37657;-80
2021/04/19 00:11:46;;;;;;;62.60;29.03;;;;;;;;;;5057353;28;39404;-79
2021/04/19 00:14:13;;;;;;;55.63;26.90;;;;;;;;;;5038744;28;39116;-80
2021/04/19 00:16:39;;;;;;;46.57;25.43;;;;;;;;;;5039565;28;37856;-80
2021/04/19 00:19:06;;;;;;;54.70;26.20;;;;;;;;;;5052302;28;39968;-80
2021/04/19 00:21:32;;;;;;;54.47;26.00;;;;;;;;;;5048086;28;40308;-79
2021/04/19 00:23:59;;;;;;;47.07;24.90;;;;;;;;;;5039100;28;37207;-79
2021/04/19 00:26:26;;;;;;;53.50;27.30;;;;;;;;;;5063794;28;37898;-79
2021/04/19 00:28:52;;;;;;;47.20;25.70;;;;;;;;;;5067306;28;38738;-79
2021/04/19 00:31:18;;;;;;;49.00;25.10;;;;;;;;;;5064678;28;39732;-78
2021/04/19 00:33:45;;;;;;;50.43;24.70;;;;;;;;;;5064499;28;39660;-78
2021/04/19 00:36:11;;;;;;;46.23;25.03;;;;;;;;;;5068683;28;38657;-77
2021/04/19 00:38:38;;;;;;;37.30;20.30;;;;;;;;;;5068096;28;40228;-78
2021/04/19 00:41:04;;;;;;;40.87;23.40;;;;;;;;;;5070589;28;39065;-77
2021/04/19 00:43:31;;;;;;;43.60;23.50;;;;;;;;;;5051042;28;39117;-78
2021/04/19 00:46:04;;;;;;;42.60;22.97;;;;;;;;;;5068496;28;37901;-79
2021/04/19 00:48:31;;;;;;;42.47;23.00;;;;;;;;;;5072826;27;50220;-78
2021/04/19 00:50:58;;;;;;;40.33;22.77;;;;;;;;;;5046766;28;38843;-79
2021/04/19 00:53:25;;;;;;;43.17;24.43;;;;;;;;;;5060345;28;38302;-79
2021/04/19 00:55:53;;;;;;;45.27;25.07;;;;;;;;;;5054076;28;37064;-79
2021/04/19 00:58:19;;;;;;;45.90;23.97;;;;;;;;;;5036184;28;39488;-78
2021/04/19 01:00:46;;;;;;;49.03;27.23;;;;;;;;;;5056148;28;39689;-79
2021/04/19 01:03:12;;;;;;;46.17;26.43;;;;;;;;;;5053715;28;40224;-79
2021/04/19 01:05:40;;;;;;;49.30;26.63;;;;;;;;;;5051014;28;37517;-79
2021/04/19 01:08:09;;;;;;;53.93;26.83;;;;;;;;;;5057787;28;37574;-78
2021/04/19 01:10:36;;;;;;;50.03;26.30;;;;;;;;;;5049019;28;37518;-79
2021/04/19 01:13:04;;;;;;;46.47;22.97;;;;;;;;;;5062545;28;38265;-79
2021/04/19 01:15:31;;;;;;;49.53;27.50;;;;;;;;;;5057702;28;36003;-79
2021/04/19 01:17:57;;;;;;;56.87;30.30;;;;;;;;;;5057329;28;40230;-79
2021/04/19 01:20:25;;;;;;;57.53;31.47;;;;;;;;;;5055573;28;38879;-79
2021/04/19 01:22:51;;;;;;;61.90;30.20;;;;;;;;;;5050324;28;40232;-79
2021/04/19 01:25:19;;;;;;;54.73;30.80;;;;;;;;;;5054631;28;36097;-79
2021/04/19 01:27:46;;;;;;;64.03;30.87;;;;;;;;;;5055189;28;39326;-78
2021/04/19 01:30:14;;;;;;;59.93;30.70;;;;;;;;;;5056654;28;38254;-79
2021/04/19 01:32:41;;;;;;;53.67;27.97;;;;;;;;;;5045956;28;37576;-80
2021/04/19 01:35:08;;;;;;;52.93;27.73;;;;;;;;;;5061320;28;37761;-79
2021/04/19 01:37:34;;;;;;;53.43;28.87;;;;;;;;;;5050757;28;39192;-79
2021/04/19 01:40:01;;;;;;;51.73;28.40;;;;;;;;;;5049340;28;40532;-79
2021/04/19 01:42:27;;;;;;;48.80;27.77;;;;;;;;;;5045196;28;48448;-80
2021/04/19 01:44:53;;;;;;;58.17;29.43;;;;;;;;;;5051906;28;37230;-80
2021/04/19 01:47:20;;;;;;;55.87;31.13;;;;;;;;;;5049804;28;39060;-79
2021/04/19 01:49:47;;;;;;;52.47;28.80;;;;;;;;;;5047999;28;38195;-80
2021/04/19 01:52:22;;;;;;;52.23;30.93;;;;;;;;;;5047290;28;38882;-79
2021/04/19 01:54:48;;;;;;;51.50;29.47;;;;;;;;;;5052264;28;38560;-80
2021/04/19 01:57:15;;;;;;;52.80;29.90;;;;;;;;;;5031566;28;40295;-78
2021/04/19 01:59:42;;;;;;;54.20;31.23;;;;;;;;;;5049158;28;38921;-79
2021/04/19 02:02:14;;;;;;;53.87;31.03;;;;;;;;;;5044760;28;40325;-79
2021/04/19 02:04:43;;;;;;;59.17;33.00;;;;;;;;;;5052036;28;36075;-79
2021/04/19 02:07:21;;;;;;;65.37;35.30;;;;;;;;;;5043452;28;40677;-78
2021/04/19 02:09:56;;;;;;;63.10;34.80;;;;;;;;;;5028940;28;40103;-78
2021/04/19 02:12:38;;;;;;;76.57;38.63;;;;;;;;;;5045263;28;37800;-78
2021/04/19 02:15:07;;;;;;;66.25;36.28;;;;;;;;;;5042273;28;37901;-78
2021/04/19 02:17:54;;;;;;;78.67;38.90;;;;;;;;;;5041854;28;38003;-78
2021/04/19 02:20:39;;;;;;;62.07;37.00;;;;;;;;;;5042745;28;39034;-78
2021/04/19 02:23:09;;;;;;;67.33;37.33;;;;;;;;;;5043159;28;40688;-78
2021/04/19 02:25:37;;;;;;;65.50;38.23;;;;;;;;;;5046899;28;38212;-77
2021/04/19 02:28:08;;;;;;;65.73;38.47;;;;;;;;;;5042709;28;38444;-78
2021/04/19 02:30:35;;;;;;;69.80;38.70;;;;;;;;;;5042813;28;40930;-78
2021/04/19 02:33:04;;;;;;;69.40;39.10;;;;;;;;;;5048464;28;38757;-77
2021/04/19 02:35:32;;;;;;;65.30;38.23;;;;;;;;;;5049254;28;37702;-77
2021/04/19 02:37:59;;;;;;;70.60;38.77;;;;;;;;;;5046051;28;40781;-78
2021/04/19 02:40:27;;;;;;;66.63;40.23;;;;;;;;;;5051011;28;39402;-78
2021/04/19 02:42:55;;;;;;;67.53;39.13;;;;;;;;;;5048585;28;37921;-78
2021/04/19 02:45:23;;;;;;;59.93;35.67;;;;;;;;;;5043338;28;35201;-79
2021/04/19 02:47:50;;;;;;;66.53;38.07;;;;;;;;;;5045727;28;40216;-78
2021/04/19 02:50:18;;;;;;;65.73;36.70;;;;;;;;;;5040207;28;39208;-78
2021/04/19 02:52:45;;;;;;;67.97;38.33;;;;;;;;;;5035236;28;39522;-79
2021/04/19 02:55:23;;;;;;;76.60;44.00;;;;;;;;;;5033070;28;38031;-79
2021/04/19 02:58:01;;;;;;;70.17;41.13;;;;;;;;;;5046997;28;39820;-79
2021/04/19 03:00:28;;;;;;;75.60;44.30;;;;;;;;;;5049033;28;48218;-78
2021/04/19 03:02:56;;;;;;;68.27;42.20;;;;;;;;;;5033198;28;39130;-78
2021/04/19 03:05:23;;;;;;;71.07;43.80;;;;;;;;;;5054241;28;37049;-79
2021/04/19 03:07:51;;;;;;;86.13;50.13;;;;;;;;;;5053979;28;39125;-78
2021/04/19 03:10:19;;;;;;;98.13;51.80;;;;;;;;;;5035871;28;38664;-78
2021/04/19 03:12:48;;;;;;;94.37;52.43;;;;;;;;;;5056791;28;39176;-79
2021/04/19 03:15:16;;;;;;;89.83;49.53;;;;;;;;;;5050071;28;39665;-78
2021/04/19 03:17:43;;;;;;;93.37;52.63;;;;;;;;;;5051713;28;39619;-78
2021/04/19 03:20:12;;;;;;;84.17;49.37;;;;;;;;;;5053881;28;39321;-78
2021/04/19 03:22:40;;;;;;;85.00;50.47;;;;;;;;;;5049278;28;40685;-78
2021/04/19 03:25:08;;;;;;;97.03;55.10;;;;;;;;;;5045315;28;37132;-78
2021/04/19 03:27:36;;;;;;;97.20;54.80;;;;;;;;;;5047274;28;37678;-78
2021/04/19 03:30:03;;;;;;;124.13;59.87;;;;;;;;;;5044761;28;39151;-78
2021/04/19 03:32:36;;;;;;;78.60;48.97;;;;;;;;;;5039928;28;48438;-78
2021/04/19 03:35:02;;;;;;;;;;;;;;;;;;5044651;28;36886;-78
2021/04/19 03:37:30;;;;;;;113.43;60.47;;;;;;;;;;5044151;28;39509;-78
2021/04/19 03:39:58;;;;;;;97.97;55.47;;;;;;;;;;5047077;28;39957;-78
2021/04/19 03:42:26;;;;;;;109.97;59.13;;;;;;;;;;5049613;28;39356;-77
2021/04/19 03:44:52;;;;;;;110.50;60.00;;;;;;;;;;5042318;28;37331;-77
2021/04/19 03:47:20;;;;;;;113.57;58.77;;;;;;;;;;5020753;28;37191;-77
2021/04/19 03:49:49;;;;;;;126.83;66.77;;;;;;;;;;5041715;28;40054;-78
2021/04/19 03:52:18;;;;;;;95.00;54.27;;;;;;;;;;5043622;28;39536;-78
2021/04/19 03:54:47;;;;;;;137.93;71.97;;;;;;;;;;5047104;28;35649;-78
2021/04/19 03:57:16;;;;;;;111.93;59.03;;;;;;;;;;5049867;28;38888;-78
2021/04/19 03:59:44;;;;;;;101.97;57.73;;;;;;;;;;5041920;28;39486;-79
2021/04/19 04:02:11;;;;;;;127.17;67.60;;;;;;;;;;5041444;28;38960;-78
2021/04/19 04:04:40;;;;;;;109.97;62.37;;;;;;;;;;5047923;28;36790;-78
2021/04/19 04:07:08;;;;;;;124.70;66.83;;;;;;;;;;5022626;28;40926;-79
2021/04/19 04:09:35;;;;;;;86.30;48.37;;;;;;;;;;5041460;28;39390;-77
2021/04/19 04:12:02;;;;;;;87.47;51.23;;;;;;;;;;5024661;28;38855;-78
2021/04/19 04:14:29;;;;;;;100.30;53.80;;;;;;;;;;5041554;28;48761;-77
2021/04/19 04:16:56;;;;;;;136.67;69.33;;;;;;;;;;5044107;28;39514;-78
2021/04/19 04:19:22;;;;;;;123.00;65.87;;;;;;;;;;5038424;28;40442;-77
2021/04/19 04:21:49;;;;;;;123.57;66.27;;;;;;;;;;5027600;28;39286;-77
2021/04/19 04:24:16;;;;;;;98.10;54.93;;;;;;;;;;5047281;28;37247;-78
2021/04/19 04:26:42;;;;;;;140.67;70.90;;;;;;;;;;5029748;28;39245;-78
2021/04/19 04:29:09;;;;;;;108.83;57.60;;;;;;;;;;5042600;28;39138;-78
2021/04/19 04:31:35;;;;;;;101.47;56.67;;;;;;;;;;5035661;28;40433;-78
2021/04/19 04:34:02;;;;;;;121.07;62.77;;;;;;;;;;5045558;28;37574;-78
2021/04/19 04:36:28;;;;;;;100.20;54.67;;;;;;;;;;5021345;28;47122;-78
2021/04/19 04:38:54;;;;;;;106.70;55.03;;;;;;;;;;5041877;28;39301;-78
2021/04/19 04:41:21;;;;;;;96.47;52.67;;;;;;;;;;5037898;28;38716;-77
2021/04/19 04:43:48;;;;;;;105.03;58.27;;;;;;;;;;5045197;28;38119;-77
2021/04/19 04:46:33;;;;;;;113.70;57.97;;;;;;;;;;5040058;28;39354;-78
2021/04/19 04:49:04;;;;;;;96.77;52.23;;;;;;;;;;5042716;28;39176;-78
2021/04/19 04:51:31;;;;;;;88.43;50.73;;;;;;;;;;5048922;28;48657;-78
2021/04/19 04:54:18;;;;;;;96.10;51.83;;;;;;;;;;5048578;28;36565;-78
2021/04/19 04:56:48;;;;;;;114.17;59.23;;;;;;;;;;5036367;28;47114;-78
2021/04/19 04:59:15;;;;;;;110.33;61.10;;;;;;;;;;5048127;28;40661;-78
2021/04/19 05:01:42;;;;;;;121.13;63.17;;;;;;;;;;5048712;28;38997;-78
2021/04/19 05:04:09;;;;;;;99.40;53.53;;;;;;;;;;5047415;28;37464;-78
2021/04/19 05:06:36;;;;;;;133.03;64.07;;;;;;;;;;5024047;28;40570;-78
2021/04/19 05:09:03;;;;;;;113.47;59.83;;;;;;;;;;5029470;28;39177;-79
2021/04/19 05:11:29;;;;;;;118.50;61.97;;;;;;;;;;5045048;28;40353;-77
2021/04/19 05:14:00;;;;;;;123.63;60.30;;;;;;;;;;5045953;28;38689;-78
2021/04/19 05:16:26;;;;;;;111.40;57.80;;;;;;;;;;5047852;28;38596;-78
2021/04/19 05:18:54;;;;;;;107.40;55.93;;;;;;;;;;5043557;28;38805;-78
2021/04/19 05:21:20;;;;;;;105.03;56.40;;;;;;;;;;5048429;28;39390;-78
2021/04/19 05:23:46;;;;;;;118.63;55.67;;;;;;;;;;5038342;28;37077;-78
2021/04/19 05:26:13;;;;;;;98.47;51.57;;;;;;;;;;5039049;28;39616;-79
2021/04/19 05:28:42;;;;;;;100.20;49.07;;;;;;;;;;5044149;28;40189;-78
2021/04/19 05:31:10;;;;;;;99.50;51.63;;;;;;;;;;5033860;28;37884;-78
2021/04/19 05:33:36;;;;;;;109.60;51.63;;;;;;;;;;5052545;28;36206;-79
2021/04/19 05:36:12;;;;;;;96.07;52.90;;;;;;;;;;5032332;28;38311;-78
2021/04/19 05:38:43;;;;;;;97.03;50.13;;;;;;;;;;5052324;28;38776;-78
2021/04/19 05:41:11;;;;;;;93.87;50.07;;;;;;;;;;5050732;28;38330;-77
2021/04/19 05:43:37;;;;;;;91.70;50.10;;;;;;;;;;5047288;28;36224;-78
2021/04/19 05:46:03;;;;;;;86.60;48.67;;;;;;;;;;5026788;28;37974;-77
2021/04/19 05:48:30;;;;;;;89.33;47.30;;;;;;;;;;5046963;28;39097;-78
2021/04/19 05:50:58;;;;;;;78.53;43.47;;;;;;;;;;5041754;28;37738;-78
2021/04/19 05:53:25;;;;;;;91.73;46.00;;;;;;;;;;5040293;28;36144;-78
2021/04/19 05:55:55;;;;;;;84.27;43.23;;;;;;;;;;5033403;28;37743;-77
2021/04/19 05:58:51;;;;;;;80.10;42.07;;;;;;;;;;5053378;28;39590;-78
2021/04/19 06:01:20;;;;;;;86.20;46.73;;;;;;;;;;5025393;28;38670;-78
2021/04/19 06:03:51;;;;;;;82.47;45.17;;;;;;;;;;5045198;28;36893;-76
2021/04/19 06:06:21;;;;;;;86.53;44.20;;;;;;;;;;5041055;28;38889;-78
2021/04/19 06:09:03;;;;;;;86.93;47.03;;;;;;;;;;5033682;28;41116;-78
2021/04/19 06:11:31;;;;;;;88.43;47.13;;;;;;;;;;5049572;28;47339;-77
2021/04/19 06:13:58;;;;;;;100.37;49.00;;;;;;;;;;5043050;28;37183;-77
2021/04/19 06:16:26;;;;;;;78.30;44.27;;;;;;;;;;5047758;28;37996;-78
2021/04/19 06:18:52;;;;;;;86.03;44.77;;;;;;;;;;5047074;28;37565;-77
2021/04/19 06:21:19;;;;;;;83.17;43.43;;;;;;;;;;5044366;28;37488;-78
2021/04/19 06:23:45;;;;;;;81.43;44.50;;;;;;;;;;5043204;28;38448;-78
2021/04/19 06:26:12;;;;;;;89.03;43.80;;;;;;;;;;5046839;28;37930;-78
2021/04/19 06:28:38;;;;;;;81.40;42.33;;;;;;;;;;5044762;28;39309;-78
2021/04/19 06:31:06;;;;;;;80.53;42.50;;;;;;;;;;5031068;28;38568;-78
2021/04/19 06:33:33;;;;;;;79.67;41.40;;;;;;;;;;5023636;28;36186;-78
2021/04/19 06:35:59;;;;;;;78.50;39.93;;;;;;;;;;5036362;28;38425;-77
2021/04/19 06:38:26;;;;;;;80.53;39.80;;;;;;;;;;5052591;28;39513;-77
2021/04/19 06:40:52;;;;;;;75.23;37.40;;;;;;;;;;5034804;28;38638;-77
2021/04/19 06:43:18;;;;;;;71.50;36.93;;;;;;;;;;5044201;28;36204;-77
2021/04/19 06:45:45;;;;;;;64.40;34.67;;;;;;;;;;5043166;28;37742;-77
2021/04/19 06:48:12;;;;;;;70.07;37.07;;;;;;;;;;5039935;28;37941;-77
2021/04/19 06:50:39;;;;;;;63.67;33.33;;;;;;;;;;5028031;28;37577;-78
2021/04/19 06:53:06;;;;;;;69.03;34.10;;;;;;;;;;5043197;28;38004;-77
2021/04/19 06:55:33;;;;;;;60.70;33.70;;;;;;;;;;5044907;28;38438;-78
2021/04/19 06:58:00;;;;;;;57.80;30.80;;;;;;;;;;5044081;28;39303;-77
2021/04/19 07:00:28;;;;;;;53.70;28.30;;;;;;;;;;5049412;28;39896;-78
2021/04/19 07:02:59;;;;;;;51.77;27.20;;;;;;;;;;5052403;28;36235;-78
2021/04/19 07:05:27;;;;;;;51.97;26.30;;;;;;;;;;5048694;28;39511;-78
2021/04/19 07:07:53;;;;;;;48.10;26.77;;;;;;;;;;5035033;28;37515;-77
2021/04/19 07:10:20;;;;;;;46.40;25.57;;;;;;;;;;5049338;28;41581;-77
2021/04/19 07:12:47;;;;;;;45.30;23.40;;;;;;;;;;5037801;28;37716;-77
2021/04/19 07:15:16;;;;;;;53.33;23.40;;;;;;;;;;5053364;28;39670;-77
2021/04/19 07:17:43;;;;;;;46.07;22.60;;;;;;;;;;5050110;28;39052;-76
2021/04/19 07:20:10;;;;;;;39.00;21.07;;;;;;;;;;5048531;28;39047;-77
2021/04/19 07:22:38;;;;;;;33.85;20.00;;;;;;;;;;5052064;28;37654;-76
2021/04/19 07:25:05;;;;;;;34.25;20.08;;;;;;;;;;5049157;28;39357;-77
2021/04/19 07:27:31;;;;;;;36.17;20.25;;;;;;;;;;5051270;28;39986;-76
2021/04/19 07:29:58;;;;;;;38.28;20.15;;;;;;;;;;5036437;28;37494;-77
2021/04/19 07:32:34;;;;;;;32.85;18.20;;;;;;;;;;5010590;28;37931;-77
2021/04/19 07:35:01;;;;;;;36.70;19.10;;;;;;;;;;5054632;28;39611;-76
2021/04/19 07:37:28;;;;;;;36.92;18.65;;;;;;;;;;5036652;28;47637;-77
2021/04/19 07:39:56;;;;;;;31.00;19.80;;;;;;;;;;5048871;28;37137;-77
2021/04/19 07:42:22;;;;;;;33.33;19.13;;;;;;;;;;5046010;28;35972;-77
2021/04/19 07:44:50;;;;;;;33.05;18.50;;;;;;;;;;5024852;28;38992;-77
2021/04/19 07:47:25;;;;;;;33.13;19.23;;;;;;;;;;5045218;28;39897;-77
2021/04/19 07:50:04;;;;;;;29.45;18.17;;;;;;;;;;5042901;28;38570;-77
2021/04/19 07:52:31;;;;;;;31.25;17.73;;;;;;;;;;5037026;28;47095;-78
2021/04/19 07:55:13;;;;;;;32.88;18.13;;;;;;;;;;5041593;28;39374;-77
2021/04/19 07:57:40;;;;;;;26.98;17.80;;;;;;;;;;5048224;28;48017;-78
2021/04/19 08:00:07;;;;;;;30.52;18.73;;;;;;;;;;5046600;28;38419;-77
2021/04/19 08:02:34;;;;;;;31.67;18.10;;;;;;;;;;5045253;28;36941;-77
2021/04/19 08:05:04;;;;;;;27.23;17.35;;;;;;;;;;5030139;28;40544;-77
2021/04/19 08:07:30;;;;;;;34.42;17.63;;;;;;;;;;5049425;28;50068;-77
2021/04/19 08:10:01;;;;;;;28.45;16.88;;;;;;;;;;5047419;28;39005;-77
2021/04/19 08:12:41;;;;;;;30.58;17.88;;;;;;;;;;5045482;28;38896;-77
2021/04/19 08:15:10;;;;;;;28.02;15.63;;;;;;;;;;5045926;28;39339;-77
2021/04/19 08:17:36;;;;;;;26.17;15.30;;;;;;;;;;5027376;28;37651;-77
2021/04/19 08:20:10;;;;;;;25.85;15.18;;;;;;;;;;5047185;28;37334;-77
2021/04/19 08:22:39;;;;;;;22.92;14.93;;;;;;;;;;5034983;28;47009;-76
2021/04/19 08:25:08;;;;;;;24.90;15.63;;;;;;;;;;5043162;28;39189;-77
2021/04/19 08:27:35;;;;;;;27.08;15.60;;;;;;;;;;5047014;28;37629;-76
2021/04/19 08:30:01;;;;;;;27.23;15.70;;;;;;;;;;5029926;28;40240;-78
2021/04/19 08:32:31;;;;;;;25.67;15.60;;;;;;;;;;5016779;28;47249;-78
2021/04/19 08:34:57;;;;;;;25.63;15.43;;;;;;;;;;5049042;28;40326;-78
2021/04/19 08:37:27;;;;;;;29.15;17.67;;;;;;;;;;5043575;28;40043;-79
2021/04/19 08:39:55;;;;;;;26.92;16.42;;;;;;;;;;5027200;28;38735;-77
2021/04/19 08:42:22;;;;;;;25.60;15.95;;;;;;;;;;5045358;28;38818;-76
2021/04/19 08:44:48;;;;;;;31.10;15.88;;;;;;;;;;5029377;28;37700;-78
2021/04/19 08:47:20;;;;;;;29.83;16.80;;;;;;;;;;5043065;28;38806;-77
2021/04/19 08:49:47;;;;;;;28.92;17.02;;;;;;;;;;5047334;28;41346;-77
2021/04/19 08:52:16;;;;;;;26.92;16.92;;;;;;;;;;5043237;28;37919;-77
2021/04/19 08:54:42;;;;;;;26.23;16.05;;;;;;;;;;5030361;28;39853;-77
2021/04/19 08:57:09;;;;;;;25.35;15.68;;;;;;;;;;5048815;28;39851;-76
2021/04/19 08:59:36;;;;;;;26.50;15.95;;;;;;;;;;5048143;28;38850;-77
2021/04/19 09:02:04;;;;;;;28.30;16.52;;;;;;;;;;5049846;28;38598;-77
2021/04/19 09:04:30;;;;;;;24.98;15.23;;;;;;;;;;5029614;28;39572;-77
2021/04/19 09:06:58;;;;;;;23.83;14.48;;;;;;;;;;5049916;28;39374;-77
2021/04/19 09:09:43;;;;;;;30.17;16.45;;;;;;;;;;5045518;28;38967;-77
2021/04/19 09:12:09;;;;;;;26.58;15.75;;;;;;;;;;5024388;28;38481;-76
2021/04/19 09:14:38;;;;;;;25.27;13.82;;;;;;;;;;5050648;28;37911;-77
2021/04/19 09:17:04;;;;;;;25.67;15.35;;;;;;;;;;5046450;28;38917;-77
2021/04/19 09:19:31;;;;;;;23.40;14.43;;;;;;;;;;5027845;28;39125;-77
2021/04/19 09:22:11;;;;;;;24.42;15.20;;;;;;;;;;5027130;28;37584;-77
2021/04/19 09:25:01;;;;;;;23.88;14.70;;;;;;;;;;5040885;28;48539;-77
2021/04/19 09:27:46;;;;;;;23.98;14.52;;;;;;;;;;5025822;28;38415;-77
2021/04/19 09:30:26;;;;;;;24.55;15.07;;;;;;;;;;5024036;28;39283;-77
2021/04/19 09:33:05;;;;;;;30.90;15.27;;;;;;;;;;5028452;28;36734;-77
2021/04/19 09:35:41;;;;;;;22.42;15.38;;;;;;;;;;5023711;28;47838;-77
2021/04/19 09:38:14;;;;;;;25.40;16.60;;;;;;;;;;5027349;28;40416;-77
2021/04/19 09:40:47;;;;;;;28.92;16.20;;;;;;;;;;5048016;28;38254;-77
2021/04/19 09:43:13;;;;;;;;;;;;;;;;;;5018091;28;36447;-77
2021/04/19 09:45:46;;;;;;;25.75;16.92;;;;;;;;;;5039186;28;38118;-77
2021/04/19 09:48:27;;;;;;;21.70;15.10;;;;;;;;;;5028560;28;38482;-78
2021/04/19 09:51:14;;;;;;;24.02;17.42;;;;;;;;;;5032967;28;38716;-77
2021/04/19 09:53:44;;;;;;;26.48;17.77;;;;;;;;;;5047160;28;47330;-77
2021/04/19 09:56:11;;;;;;;28.00;17.67;;;;;;;;;;5032830;28;39788;-77
2021/04/19 09:58:38;;;;;;;23.13;16.50;;;;;;;;;;5050363;28;37581;-77
2021/04/19 10:01:04;;;;;;;25.45;17.08;;;;;;;;;;5047711;28;38859;-76
2021/04/19 10:03:32;;;;;;;31.42;18.38;;;;;;;;;;5040613;28;37486;-77
2021/04/19 10:06:01;;;;;;;26.75;18.60;;;;;;;;;;5049824;28;37807;-77
2021/04/19 10:08:28;;;;;;;25.55;18.90;;;;;;;;;;5050457;28;39438;-77
2021/04/19 10:10:55;;;;;;;26.45;17.92;;;;;;;;;;5038825;28;38788;-77
2021/04/19 10:13:28;;;;;;;30.30;19.27;;;;;;;;;;5044300;28;37382;-77
2021/04/19 10:16:05;;;;;;;30.05;18.88;;;;;;;;;;5027935;28;37837;-77
2021/04/19 10:18:33;;;;;;;28.48;19.08;;;;;;;;;;5048987;28;47154;-77
2021/04/19 10:21:00;;;;;;;25.27;18.25;;;;;;;;;;5046638;28;39871;-77
2021/04/19 10:23:33;;;;;;;25.98;18.92;;;;;;;;;;5045072;28;38277;-77
2021/04/19 10:26:00;;;;;;;25.67;18.92;;;;;;;;;;5043387;28;39926;-77
2021/04/19 10:28:46;;;;;;;26.85;19.10;;;;;;;;;;5027232;28;39465;-77
2021/04/19 10:31:15;;;;;;;27.27;18.77;;;;;;;;;;5044086;28;39252;-79
2021/04/19 10:33:43;;;;;;;26.50;18.35;;;;;;;;;;5039041;28;38013;-79
2021/04/19 10:36:12;;;;;;;28.58;19.40;;;;;;;;;;5038899;28;38630;-78
2021/04/19 10:38:39;;;;;;;28.17;18.48;;;;;;;;;;5046389;28;39190;-78
2021/04/19 10:41:06;;;;;;;26.15;19.25;;;;;;;;;;5046286;28;39269;-79
2021/04/19 10:43:32;;;;;;;31.25;18.33;;;;;;;;;;5050334;28;37229;-78
2021/04/19 10:45:59;;;;;;;28.20;18.83;;;;;;;;;;5042376;28;39479;-77
2021/04/19 10:48:27;;;;;;;27.48;19.73;;;;;;;;;;5046895;28;39348;-77
2021/04/19 10:50:55;;;;;;;28.02;18.17;;;;;;;;;;5026493;28;40505;-77
2021/04/19 10:53:38;;;;;;;24.90;18.48;;;;;;;;;;5039124;28;37809;-78
2021/04/19 10:56:04;;;;;;;;;;;;;;;;;;5041422;28;37236;-78
2021/04/19 10:58:31;;;;;;;22.38;17.05;;;;;;;;;;5040646;28;39641;-77
2021/04/19 11:00:58;;;;;;;21.55;17.77;;;;;;;;;;5025868;28;39508;-76
2021/04/19 11:03:33;;;;;;;27.35;17.90;;;;;;;;;;5041402;28;38971;-77
2021/04/19 11:06:01;;;;;;;23.67;17.90;;;;;;;;;;5035174;28;39119;-77
2021/04/19 11:08:46;;;;;;;23.70;18.00;;;;;;;;;;5022278;28;40631;-77
2021/04/19 11:11:26;;;;;;;22.88;16.90;;;;;;;;;;5040694;28;38792;-77
2021/04/19 11:13:53;;;;;;;19.88;15.68;;;;;;;;;;5046102;28;37432;-76
2021/04/19 11:16:20;;;;;;;18.02;14.40;;;;;;;;;;5051608;28;38908;-80
2021/04/19 11:18:47;;;;;;;19.67;14.70;;;;;;;;;;5027029;28;39626;-81
2021/04/19 11:21:27;;;;;;;17.13;14.32;;;;;;;;;;5033347;28;37401;-81
2021/04/19 11:24:15;;;;;;;17.40;13.55;;;;;;;;;;5048162;28;36148;-81
2021/04/19 11:26:42;;;;;;;13.02;10.88;;;;;;;;;;5048190;28;49032;-79
2021/04/19 11:29:09;;;;;;;14.98;12.02;;;;;;;;;;5035625;28;40528;-79
2021/04/19 11:31:43;;;;;;;14.13;12.15;;;;;;;;;;5049472;28;39367;-79
2021/04/19 11:34:11;;;;;;;14.82;11.77;;;;;;;;;;5035549;28;37483;-80
2021/04/19 11:36:47;;;;;;;17.38;11.90;;;;;;;;;;5045636;28;39224;-79
2021/04/19 11:39:14;;;;;;;17.90;11.48;;;;;;;;;;5030639;28;37777;-80
2021/04/19 11:41:41;;;;;;;16.40;12.10;;;;;;;;;;5040834;28;39361;-82
2021/04/19 11:44:08;;;;;;;16.45;13.48;;;;;;;;;;5050340;28;37923;-81
2021/04/19 11:46:39;;;;;;;15.98;11.73;;;;;;;;;;5050667;28;39199;-79
2021/04/19 11:49:05;;;;;;;14.75;12.13;;;;;;;;;;5051069;28;39618;-79
2021/04/19 11:51:34;;;;;;;15.05;12.13;;;;;;;;;;5041894;28;38151;-79
2021/04/19 11:54:00;;;;;;;19.30;13.77;;;;;;;;;;5045741;28;37399;-79
2021/04/19 11:56:26;;;;;;;14.77;12.80;;;;;;;;;;5050509;28;38885;-79
2021/04/19 11:58:53;;;;;;;15.75;12.80;;;;;;;;;;5047002;28;39066;-78
2021/04/19 12:01:20;;;;;;;14.88;11.52;;;;;;;;;;5037308;28;39137;-78
2021/04/19 12:03:48;;;;;;;16.15;12.10;;;;;;;;;;5044245;28;36339;-77
2021/04/19 12:06:15;;;;;;;15.80;11.82;;;;;;;;;;5037758;28;39163;-78
2021/04/19 12:08:45;;;;;;;14.35;12.73;;;;;;;;;;5033117;28;37891;-78
2021/04/19 12:11:13;;;;;;;18.30;13.10;;;;;;;;;;5039233;28;37506;-78
2021/04/19 12:13:39;;;;;;;14.63;12.23;;;;;;;;;;5048945;28;37790;-78
2021/04/19 12:16:06;;;;;;;15.85;12.50;;;;;;;;;;5046538;28;38248;-78
2021/04/19 12:18:33;;;;;;;16.05;12.05;;;;;;;;;;5048924;28;38756;-78
2021/04/19 12:21:00;;;;;;;14.65;11.27;;;;;;;;;;5047604;28;38787;-78
2021/04/19 12:23:28;;;;;;;13.85;11.10;;;;;;;;;;5049465;28;37949;-78
2021/04/19 12:25:55;;;;;;;14.88;11.45;;;;;;;;;;5045337;28;39381;-79
2021/04/19 12:28:21;;;;;;;14.65;12.95;;;;;;;;;;5031821;28;38919;-79
2021/04/19 12:30:48;;;;;;;13.80;11.68;;;;;;;;;;5045274;28;38147;-79
2021/04/19 12:33:15;;;;;;;15.65;13.80;;;;;;;;;;5043508;28;37343;-79
2021/04/19 12:35:41;;;;;;;19.48;13.63;;;;;;;;;;5050359;28;38726;-79
2021/04/19 12:38:08;;;;;;;17.08;13.38;;;;;;;;;;5053566;28;38962;-80
2021/04/19 12:40:35;;;;;;;17.17;13.85;;;;;;;;;;5048046;28;20157;-80
2021/04/19 12:43:01;;;;;;;15.40;12.50;;;;;;;;;;5055636;28;35817;-77
2021/04/19 12:45:32;;;;;;;15.10;11.02;;;;;;;;;;5054583;28;41487;-81
2021/04/19 12:48:03;;;;;;;13.10;10.48;;;;;;;;;;5049482;28;38900;-80
2021/04/19 12:50:29;;;;;;;16.02;11.88;;;;;;;;;;5052573;28;46967;-80
2021/04/19 12:53:03;;;;;;;13.82;10.30;;;;;;;;;;5048963;28;36784;-80
2021/04/19 12:55:29;;;;;;;13.45;10.88;;;;;;;;;;5051561;28;48860;-79
2021/04/19 12:57:56;;;;;;;15.50;10.48;;;;;;;;;;5033406;28;38326;-80
2021/04/19 13:00:23;;;;;;;15.48;11.65;;;;;;;;;;5033442;28;38977;-79
2021/04/19 13:02:49;;;;;;;14.60;10.80;;;;;;;;;;5057736;28;37063;-79
2021/04/19 13:05:16;;;;;;;15.25;11.07;;;;;;;;;;5057206;28;38888;-79
2021/04/19 13:07:43;;;;;;;12.55;10.90;;;;;;;;;;5051464;28;38928;-80
2021/04/19 13:10:12;;;;;;;12.32;9.85;;;;;;;;;;5054525;28;40459;-82
2021/04/19 13:12:38;;;;;;;12.20;10.32;;;;;;;;;;5054936;28;37573;-79
2021/04/19 13:15:06;;;;;;;11.32;9.35;;;;;;;;;;5067263;28;38684;-80
2021/04/19 13:17:33;;;;;;;11.82;9.20;;;;;;;;;;5042493;28;37635;-79
2021/04/19 13:20:01;;;;;;;9.25;8.25;;;;;;;;;;5041916;28;38838;-79
2021/04/19 13:22:27;;;;;;;9.20;7.90;;;;;;;;;;5053835;28;47165;-79
2021/04/19 13:24:54;;;;;;;8.68;6.95;;;;;;;;;;5060213;28;40388;-80
2021/04/19 13:27:20;;;;;;;8.27;6.70;;;;;;;;;;5059851;28;37615;-79
2021/04/19 13:29:50;;;;;;;8.05;6.93;;;;;;;;;;5062928;28;38848;-79
2021/04/19 13:32:17;;;;;;;7.50;6.60;;;;;;;;;;5053923;28;39070;-78
2021/04/19 13:34:44;;;;;;;7.88;7.07;;;;;;;;;;5051921;28;40150;-79
2021/04/19 13:37:10;;;;;;;7.80;7.00;;;;;;;;;;5053263;28;39065;-79
2021/04/19 13:39:37;;;;;;;7.07;6.15;;;;;;;;;;5027455;28;40111;-79
2021/04/19 13:42:03;;;;;;;8.18;6.90;;;;;;;;;;5051614;28;37224;-78
2021/04/19 13:44:30;;;;;;;9.15;7.38;;;;;;;;;;5053693;28;40011;-79
2021/04/19 13:46:56;;;;;;;10.77;7.22;;;;;;;;;;5044279;28;39949;-79
2021/04/19 13:49:22;;;;;;;9.05;6.63;;;;;;;;;;5042269;28;39157;-80
2021/04/19 13:51:49;;;;;;;7.55;6.70;;;;;;;;;;5039394;28;36280;-79
2021/04/19 13:54:16;;;;;;;8.48;6.80;;;;;;;;;;5047253;28;38671;-79
2021/04/19 13:56:42;;;;;;;8.50;7.10;;;;;;;;;;5045213;28;40800;-79
2021/04/19 13:59:09;;;;;;;7.93;7.13;;;;;;;;;;5042762;28;37188;-80
2021/04/19 14:01:37;;;;;;;6.82;5.68;;;;;;;;;;5046617;28;37954;-78
2021/04/19 14:04:03;;;;;;;6.10;5.38;;;;;;;;;;5041956;28;39425;-79
2021/04/19 14:06:30;;;;;;;5.25;4.75;;;;;;;;;;5037309;28;38936;-81
2021/04/19 14:08:56;;;;;;;7.32;4.50;;;;;;;;;;5046570;28;38901;-79
2021/04/19 14:11:23;;;;;;;4.90;4.35;;;;;;;;;;5038022;28;34590;-79
2021/04/19 14:13:49;;;;;;;4.85;4.13;;;;;;;;;;5042113;28;38521;-78
2021/04/19 14:16:15;;;;;;;4.78;4.38;;;;;;;;;;5035163;28;40492;-80
2021/04/19 14:18:42;;;;;;;5.63;5.05;;;;;;;;;;5021069;28;38903;-77
2021/04/19 14:21:09;;;;;;;4.72;4.32;;;;;;;;;;5030612;28;37507;-78
2021/04/19 14:23:36;;;;;;;5.53;5.03;;;;;;;;;;5022440;28;39741;-78
2021/04/19 14:26:06;;;;;;;5.60;5.10;;;;;;;;;;5035058;28;38298;-78
2021/04/19 14:28:33;;;;;;;6.82;6.10;;;;;;;;;;5036037;28;48724;-78